sensor_id;sensor_type;location;lat;lon;timestamp;temperature;humidity
6654;DHT22;3363;50.942;7.034;2023-01-15T00:00:18;8.90;99.90
6654;DHT22;3363;50.942;7.034;2023-01-15T00:02:46;8.90;99.90
6654;DHT22;3363;50.942;7.034;2023-01-15T00:05:12;8.90;99.90
6654;DHT22;3363;50.942;7.034;2023-01-15T00:07:39;8.80;92.30
6654;DHT22;3363;50.942;7.034;2023-01-15T00:10:06;8.80;96.30
6654;DHT22;3363;50.942;7.034;2023-01-15T00:12:33;8.80;99.90
6654;DHT22;3363;50.942;7.034;2023-01-15T00:14:59;8.90;99.80
6654;DHT22;3363;50.942;7.034;2023-01-15T00:17:26;8.80;98.50
6654;DHT22;3363;50.942;7.034;2023-01-15T00:19:54;8.80;98.80
6654;DHT22;3363;50.942;7.034;2023-01-15T00:22:20;8.80;97.70
6654;DHT22;3363;50.942;7.034;2023-01-15T00:24:47;8.70;94.20
6654;DHT22;3363;50.942;7.034;2023-01-15T00:27:31;8.70;91.30
6654;DHT22;3363;50.942;7.034;2023-01-15T00:30:04;8.70;94.90
6654;DHT22;3363;50.942;7.034;2023-01-15T00:32:31;8.70;97.30
6654;DHT22;3363;50.942;7.034;2023-01-15T00:34:59;8.60;94.60
6654;DHT22;3363;50.942;7.034;2023-01-15T00:37:26;8.70;95.30
6654;DHT22;3363;50.942;7.034;2023-01-15T00:39:52;8.70;96.40
6654;DHT22;3363;50.942;7.034;2023-01-15T00:42:19;8.60;95.00
6654;DHT22;3363;50.942;7.034;2023-01-15T00:44:46;8.70;95.00
6654;DHT22;3363;50.942;7.034;2023-01-15T00:47:12;8.50;91.70
6654;DHT22;3363;50.942;7.034;2023-01-15T00:49:39;8.50;93.60
6654;DHT22;3363;50.942;7.034;2023-01-15T00:52:08;8.60;98.90
6654;DHT22;3363;50.942;7.034;2023-01-15T00:54:34;8.60;96.60
6654;DHT22;3363;50.942;7.034;2023-01-15T00:57:01;8.50;95.70
6654;DHT22;3363;50.942;7.034;2023-01-15T00:59:27;8.60;98.40
6654;DHT22;3363;50.942;7.034;2023-01-15T01:01:54;8.60;93.80
6654;DHT22;3363;50.942;7.034;2023-01-15T01:04:21;8.60;98.30
6654;DHT22;3363;50.942;7.034;2023-01-15T01:06:47;8.50;88.40
6654;DHT22;3363;50.942;7.034;2023-01-15T01:09:15;8.60;96.60
6654;DHT22;3363;50.942;7.034;2023-01-15T01:11:42;8.50;93.60
6654;DHT22;3363;50.942;7.034;2023-01-15T01:14:09;8.50;94.50
6654;DHT22;3363;50.942;7.034;2023-01-15T01:16:36;8.60;96.60
6654;DHT22;3363;50.942;7.034;2023-01-15T01:19:04;8.50;93.00
6654;DHT22;3363;50.942;7.034;2023-01-15T01:21:31;8.60;97.00
6654;DHT22;3363;50.942;7.034;2023-01-15T01:23:57;8.60;97.40
6654;DHT22;3363;50.942;7.034;2023-01-15T01:26:26;8.60;97.10
6654;DHT22;3363;50.942;7.034;2023-01-15T01:28:52;8.60;95.70
6654;DHT22;3363;50.942;7.034;2023-01-15T01:31:19;8.50;96.30
6654;DHT22;3363;50.942;7.034;2023-01-15T01:33:46;8.60;97.80
6654;DHT22;3363;50.942;7.034;2023-01-15T01:36:13;8.60;95.00
6654;DHT22;3363;50.942;7.034;2023-01-15T01:38:40;8.50;96.20
6654;DHT22;3363;50.942;7.034;2023-01-15T01:41:06;8.50;97.00
6654;DHT22;3363;50.942;7.034;2023-01-15T01:46:16;8.50;95.00
6654;DHT22;3363;50.942;7.034;2023-01-15T01:48:43;8.50;94.70
6654;DHT22;3363;50.942;7.034;2023-01-15T01:51:10;8.50;95.30
6654;DHT22;3363;50.942;7.034;2023-01-15T01:53:37;8.50;95.30
6654;DHT22;3363;50.942;7.034;2023-01-15T01:56:04;8.40;91.70
6654;DHT22;3363;50.942;7.034;2023-01-15T01:58:32;8.30;88.00
6654;DHT22;3363;50.942;7.034;2023-01-15T02:00:59;8.40;92.30
6654;DHT22;3363;50.942;7.034;2023-01-15T02:03:29;8.40;92.40
6654;DHT22;3363;50.942;7.034;2023-01-15T02:05:57;8.40;93.80
6654;DHT22;3363;50.942;7.034;2023-01-15T02:08:24;8.40;93.80
6654;DHT22;3363;50.942;7.034;2023-01-15T02:10:52;8.40;94.10
6654;DHT22;3363;50.942;7.034;2023-01-15T02:13:20;8.50;95.20
6654;DHT22;3363;50.942;7.034;2023-01-15T02:15:51;8.40;91.90
6654;DHT22;3363;50.942;7.034;2023-01-15T02:18:21;8.50;94.60
6654;DHT22;3363;50.942;7.034;2023-01-15T02:20:52;8.50;94.00
6654;DHT22;3363;50.942;7.034;2023-01-15T02:23:37;8.50;95.10
6654;DHT22;3363;50.942;7.034;2023-01-15T02:26:15;8.50;91.00
6654;DHT22;3363;50.942;7.034;2023-01-15T02:28:46;8.40;92.90
6654;DHT22;3363;50.942;7.034;2023-01-15T02:31:15;8.40;92.80
6654;DHT22;3363;50.942;7.034;2023-01-15T02:33:44;8.40;93.30
6654;DHT22;3363;50.942;7.034;2023-01-15T02:36:13;8.40;91.40
6654;DHT22;3363;50.942;7.034;2023-01-15T02:38:42;8.40;92.70
6654;DHT22;3363;50.942;7.034;2023-01-15T02:41:10;8.40;93.00
6654;DHT22;3363;50.942;7.034;2023-01-15T02:43:40;8.40;92.20
6654;DHT22;3363;50.942;7.034;2023-01-15T02:46:10;8.40;92.30
6654;DHT22;3363;50.942;7.034;2023-01-15T02:48:37;8.40;91.50
6654;DHT22;3363;50.942;7.034;2023-01-15T02:51:05;8.40;91.70
6654;DHT22;3363;50.942;7.034;2023-01-15T02:53:32;8.30;85.30
6654;DHT22;3363;50.942;7.034;2023-01-15T02:56:02;8.40;91.70
6654;DHT22;3363;50.942;7.034;2023-01-15T02:58:30;8.30;90.90
6654;DHT22;3363;50.942;7.034;2023-01-15T03:00:58;8.30;86.20
6654;DHT22;3363;50.942;7.034;2023-01-15T03:03:30;8.30;90.50
6654;DHT22;3363;50.942;7.034;2023-01-15T03:05:59;8.30;91.60
6654;DHT22;3363;50.942;7.034;2023-01-15T03:08:28;8.30;90.70
6654;DHT22;3363;50.942;7.034;2023-01-15T03:10:58;8.30;90.60
6654;DHT22;3363;50.942;7.034;2023-01-15T03:13:28;8.20;89.10
6654;DHT22;3363;50.942;7.034;2023-01-15T03:15:58;8.20;91.20
6654;DHT22;3363;50.942;7.034;2023-01-15T03:18:46;8.20;89.20
6654;DHT22;3363;50.942;7.034;2023-01-15T03:21:16;8.20;89.80
6654;DHT22;3363;50.942;7.034;2023-01-15T03:23:45;8.20;89.90
6654;DHT22;3363;50.942;7.034;2023-01-15T03:26:12;8.20;91.40
6654;DHT22;3363;50.942;7.034;2023-01-15T03:28:39;8.20;86.60
6654;DHT22;3363;50.942;7.034;2023-01-15T03:31:06;8.20;89.90
6654;DHT22;3363;50.942;7.034;2023-01-15T03:33:33;8.20;91.10
6654;DHT22;3363;50.942;7.034;2023-01-15T03:36:01;8.20;91.30
6654;DHT22;3363;50.942;7.034;2023-01-15T03:38:29;8.20;89.20
6654;DHT22;3363;50.942;7.034;2023-01-15T03:40:59;8.20;84.90
6654;DHT22;3363;50.942;7.034;2023-01-15T03:43:29;8.10;89.80
6654;DHT22;3363;50.942;7.034;2023-01-15T03:46:10;8.20;90.90
6654;DHT22;3363;50.942;7.034;2023-01-15T03:48:41;8.20;90.70
6654;DHT22;3363;50.942;7.034;2023-01-15T03:51:12;8.20;90.80
6654;DHT22;3363;50.942;7.034;2023-01-15T03:53:43;8.20;90.70
6654;DHT22;3363;50.942;7.034;2023-01-15T03:56:11;8.20;83.50
6654;DHT22;3363;50.942;7.034;2023-01-15T03:58:40;8.20;89.00
6654;DHT22;3363;50.942;7.034;2023-01-15T04:01:09;8.20;86.60
6654;DHT22;3363;50.942;7.034;2023-01-15T04:03:36;8.10;80.10
6654;DHT22;3363;50.942;7.034;2023-01-15T04:06:04;8.20;85.50
6654;DHT22;3363;50.942;7.034;2023-01-15T04:08:34;8.10;82.90
6654;DHT22;3363;50.942;7.034;2023-01-15T04:11:01;8.20;86.40
6654;DHT22;3363;50.942;7.034;2023-01-15T04:13:28;8.10;84.70
6654;DHT22;3363;50.942;7.034;2023-01-15T04:15:55;8.20;85.90
6654;DHT22;3363;50.942;7.034;2023-01-15T04:18:21;8.10;87.70
6654;DHT22;3363;50.942;7.034;2023-01-15T04:20:48;8.20;86.90
6654;DHT22;3363;50.942;7.034;2023-01-15T04:23:15;8.10;86.00
6654;DHT22;3363;50.942;7.034;2023-01-15T04:25:43;8.10;86.20
6654;DHT22;3363;50.942;7.034;2023-01-15T04:28:09;8.10;83.40
6654;DHT22;3363;50.942;7.034;2023-01-15T04:30:37;8.10;84.00
6654;DHT22;3363;50.942;7.034;2023-01-15T04:33:04;8.10;81.80
6654;DHT22;3363;50.942;7.034;2023-01-15T04:35:30;8.10;84.30
6654;DHT22;3363;50.942;7.034;2023-01-15T04:37:57;8.10;83.50
6654;DHT22;3363;50.942;7.034;2023-01-15T04:40:24;8.10;86.70
6654;DHT22;3363;50.942;7.034;2023-01-15T04:43:10;8.10;88.00
6654;DHT22;3363;50.942;7.034;2023-01-15T04:45:54;8.10;87.40
6654;DHT22;3363;50.942;7.034;2023-01-15T04:48:21;8.10;87.10
6654;DHT22;3363;50.942;7.034;2023-01-15T04:50:48;8.10;81.70
6654;DHT22;3363;50.942;7.034;2023-01-15T04:53:14;8.00;83.20
6654;DHT22;3363;50.942;7.034;2023-01-15T04:55:41;8.10;88.40
6654;DHT22;3363;50.942;7.034;2023-01-15T04:58:07;8.00;81.30
6654;DHT22;3363;50.942;7.034;2023-01-15T05:00:35;8.00;81.00
6654;DHT22;3363;50.942;7.034;2023-01-15T05:03:02;8.00;86.00
6654;DHT22;3363;50.942;7.034;2023-01-15T05:05:29;8.00;85.20
6654;DHT22;3363;50.942;7.034;2023-01-15T05:07:56;8.00;86.00
6654;DHT22;3363;50.942;7.034;2023-01-15T05:10:23;8.00;84.60
6654;DHT22;3363;50.942;7.034;2023-01-15T05:12:50;8.00;83.20
6654;DHT22;3363;50.942;7.034;2023-01-15T05:15:16;8.00;86.30
6654;DHT22;3363;50.942;7.034;2023-01-15T05:17:44;8.00;86.00
6654;DHT22;3363;50.942;7.034;2023-01-15T05:20:11;8.00;84.40
6654;DHT22;3363;50.942;7.034;2023-01-15T05:22:39;8.00;85.10
6654;DHT22;3363;50.942;7.034;2023-01-15T05:25:06;8.00;84.10
6654;DHT22;3363;50.942;7.034;2023-01-15T05:27:32;8.00;85.60
6654;DHT22;3363;50.942;7.034;2023-01-15T05:29:59;8.00;87.00
6654;DHT22;3363;50.942;7.034;2023-01-15T05:32:25;8.00;86.00
6654;DHT22;3363;50.942;7.034;2023-01-15T05:34:53;8.00;86.80
6654;DHT22;3363;50.942;7.034;2023-01-15T05:37:20;8.00;85.10
6654;DHT22;3363;50.942;7.034;2023-01-15T05:39:47;8.00;86.90
6654;DHT22;3363;50.942;7.034;2023-01-15T05:42:13;8.00;86.90
6654;DHT22;3363;50.942;7.034;2023-01-15T05:44:40;8.00;85.50
6654;DHT22;3363;50.942;7.034;2023-01-15T05:47:08;8.00;86.00
6654;DHT22;3363;50.942;7.034;2023-01-15T05:49:35;8.00;85.10
6654;DHT22;3363;50.942;7.034;2023-01-15T05:52:03;8.00;88.00
6654;DHT22;3363;50.942;7.034;2023-01-15T05:54:30;8.00;88.30
6654;DHT22;3363;50.942;7.034;2023-01-15T05:56:57;7.90;87.60
6654;DHT22;3363;50.942;7.034;2023-01-15T05:59:24;7.90;84.70
6654;DHT22;3363;50.942;7.034;2023-01-15T06:01:51;7.90;83.20
6654;DHT22;3363;50.942;7.034;2023-01-15T06:04:18;7.90;84.90
6654;DHT22;3363;50.942;7.034;2023-01-15T06:06:46;7.90;82.10
6654;DHT22;3363;50.942;7.034;2023-01-15T06:09:15;7.90;83.90
6654;DHT22;3363;50.942;7.034;2023-01-15T06:11:41;7.90;79.50
6654;DHT22;3363;50.942;7.034;2023-01-15T06:14:09;7.90;81.10
6654;DHT22;3363;50.942;7.034;2023-01-15T06:16:35;7.90;78.30
6654;DHT22;3363;50.942;7.034;2023-01-15T06:19:03;7.90;79.30
6654;DHT22;3363;50.942;7.034;2023-01-15T06:21:30;7.90;80.40
6654;DHT22;3363;50.942;7.034;2023-01-15T06:23:56;8.00;81.60
6654;DHT22;3363;50.942;7.034;2023-01-15T06:26:24;7.90;79.60
6654;DHT22;3363;50.942;7.034;2023-01-15T06:28:51;7.90;80.00
6654;DHT22;3363;50.942;7.034;2023-01-15T06:31:19;7.90;77.30
6654;DHT22;3363;50.942;7.034;2023-01-15T06:33:46;7.90;79.80
6654;DHT22;3363;50.942;7.034;2023-01-15T06:36:13;7.90;81.10
6654;DHT22;3363;50.942;7.034;2023-01-15T06:38:40;7.90;81.30
6654;DHT22;3363;50.942;7.034;2023-01-15T06:41:09;7.90;81.50
6654;DHT22;3363;50.942;7.034;2023-01-15T06:43:52;7.90;80.20
6654;DHT22;3363;50.942;7.034;2023-01-15T06:46:36;7.90;81.20
6654;DHT22;3363;50.942;7.034;2023-01-15T06:49:21;7.90;78.70
6654;DHT22;3363;50.942;7.034;2023-01-15T06:51:47;7.80;81.50
6654;DHT22;3363;50.942;7.034;2023-01-15T06:54:14;7.80;79.10
6654;DHT22;3363;50.942;7.034;2023-01-15T06:56:41;7.80;80.20
6654;DHT22;3363;50.942;7.034;2023-01-15T06:59:08;7.80;79.90
6654;DHT22;3363;50.942;7.034;2023-01-15T07:01:35;7.80;79.30
6654;DHT22;3363;50.942;7.034;2023-01-15T07:04:02;7.80;78.00
6654;DHT22;3363;50.942;7.034;2023-01-15T07:06:28;7.80;79.90
6654;DHT22;3363;50.942;7.034;2023-01-15T07:08:55;7.80;79.50
6654;DHT22;3363;50.942;7.034;2023-01-15T07:11:22;7.80;80.70
6654;DHT22;3363;50.942;7.034;2023-01-15T07:13:49;7.70;77.30
6654;DHT22;3363;50.942;7.034;2023-01-15T07:16:17;7.70;78.10
6654;DHT22;3363;50.942;7.034;2023-01-15T07:18:53;7.70;80.10
6654;DHT22;3363;50.942;7.034;2023-01-15T07:21:20;7.70;78.50
6654;DHT22;3363;50.942;7.034;2023-01-15T07:23:47;7.70;80.80
6654;DHT22;3363;50.942;7.034;2023-01-15T07:26:13;7.70;80.20
6654;DHT22;3363;50.942;7.034;2023-01-15T07:28:40;7.60;77.10
6654;DHT22;3363;50.942;7.034;2023-01-15T07:31:07;7.60;79.80
6654;DHT22;3363;50.942;7.034;2023-01-15T07:33:35;7.60;80.40
6654;DHT22;3363;50.942;7.034;2023-01-15T07:36:03;7.60;81.20
6654;DHT22;3363;50.942;7.034;2023-01-15T07:38:30;7.60;79.80
6654;DHT22;3363;50.942;7.034;2023-01-15T07:40:56;7.60;79.60
6654;DHT22;3363;50.942;7.034;2023-01-15T07:43:37;7.60;80.90
6654;DHT22;3363;50.942;7.034;2023-01-15T07:46:21;7.60;80.40
6654;DHT22;3363;50.942;7.034;2023-01-15T07:49:08;7.50;77.30
6654;DHT22;3363;50.942;7.034;2023-01-15T07:51:53;7.60;81.90
6654;DHT22;3363;50.942;7.034;2023-01-15T07:54:19;7.70;82.60
6654;DHT22;3363;50.942;7.034;2023-01-15T07:56:46;7.60;79.50
6654;DHT22;3363;50.942;7.034;2023-01-15T07:59:13;7.60;80.30
6654;DHT22;3363;50.942;7.034;2023-01-15T08:01:40;7.60;80.70
6654;DHT22;3363;50.942;7.034;2023-01-15T08:04:06;7.60;79.80
6654;DHT22;3363;50.942;7.034;2023-01-15T08:06:35;7.60;80.10
6654;DHT22;3363;50.942;7.034;2023-01-15T08:09:02;7.60;82.20
6654;DHT22;3363;50.942;7.034;2023-01-15T08:11:29;7.60;81.00
6654;DHT22;3363;50.942;7.034;2023-01-15T08:14:12;7.70;81.50
6654;DHT22;3363;50.942;7.034;2023-01-15T08:16:57;7.60;81.90
6654;DHT22;3363;50.942;7.034;2023-01-15T08:19:23;7.60;82.40
6654;DHT22;3363;50.942;7.034;2023-01-15T08:21:52;7.50;79.40
6654;DHT22;3363;50.942;7.034;2023-01-15T08:24:19;7.60;81.10
6654;DHT22;3363;50.942;7.034;2023-01-15T08:26:46;7.50;79.10
6654;DHT22;3363;50.942;7.034;2023-01-15T08:29:12;7.60;79.40
6654;DHT22;3363;50.942;7.034;2023-01-15T08:31:39;7.50;78.00
6654;DHT22;3363;50.942;7.034;2023-01-15T08:34:05;7.50;78.30
6654;DHT22;3363;50.942;7.034;2023-01-15T08:36:32;7.50;76.70
6654;DHT22;3363;50.942;7.034;2023-01-15T08:39:00;7.10;74.60
6654;DHT22;3363;50.942;7.034;2023-01-15T08:41:30;7.00;74.90
6654;DHT22;3363;50.942;7.034;2023-01-15T08:43:57;6.90;74.10
6654;DHT22;3363;50.942;7.034;2023-01-15T08:46:24;6.80;73.50
6654;DHT22;3363;50.942;7.034;2023-01-15T08:48:52;6.90;75.40
6654;DHT22;3363;50.942;7.034;2023-01-15T08:51:18;6.90;75.10
6654;DHT22;3363;50.942;7.034;2023-01-15T08:53:45;6.90;77.50
6654;DHT22;3363;50.942;7.034;2023-01-15T08:56:13;6.90;77.80
6654;DHT22;3363;50.942;7.034;2023-01-15T08:58:40;7.00;77.60
6654;DHT22;3363;50.942;7.034;2023-01-15T09:01:07;7.10;77.70
6654;DHT22;3363;50.942;7.034;2023-01-15T09:03:34;7.20;78.90
6654;DHT22;3363;50.942;7.034;2023-01-15T09:06:01;7.20;79.70
6654;DHT22;3363;50.942;7.034;2023-01-15T09:08:28;7.20;79.50
6654;DHT22;3363;50.942;7.034;2023-01-15T09:10:55;7.30;80.90
6654;DHT22;3363;50.942;7.034;2023-01-15T09:13:23;7.30;80.90
6654;DHT22;3363;50.942;7.034;2023-01-15T09:15:50;7.30;80.90
6654;DHT22;3363;50.942;7.034;2023-01-15T09:18:17;7.30;80.60
6654;DHT22;3363;50.942;7.034;2023-01-15T09:20:44;7.30;80.80
6654;DHT22;3363;50.942;7.034;2023-01-15T09:23:11;7.30;81.80
6654;DHT22;3363;50.942;7.034;2023-01-15T09:25:38;7.30;81.40
6654;DHT22;3363;50.942;7.034;2023-01-15T09:28:06;7.30;81.20
6654;DHT22;3363;50.942;7.034;2023-01-15T09:30:34;7.30;82.50
6654;DHT22;3363;50.942;7.034;2023-01-15T09:33:01;7.30;82.40
6654;DHT22;3363;50.942;7.034;2023-01-15T09:35:27;7.30;81.60
6654;DHT22;3363;50.942;7.034;2023-01-15T09:37:54;7.30;83.40
6654;DHT22;3363;50.942;7.034;2023-01-15T09:40:28;7.20;81.10
6654;DHT22;3363;50.942;7.034;2023-01-15T09:43:00;7.20;83.70
6654;DHT22;3363;50.942;7.034;2023-01-15T09:45:29;7.20;84.30
6654;DHT22;3363;50.942;7.034;2023-01-15T09:48:10;7.20;84.30
6654;DHT22;3363;50.942;7.034;2023-01-15T09:50:43;7.20;84.00
6654;DHT22;3363;50.942;7.034;2023-01-15T09:53:15;7.30;83.50
6654;DHT22;3363;50.942;7.034;2023-01-15T09:55:44;7.30;83.80
6654;DHT22;3363;50.942;7.034;2023-01-15T09:58:11;7.40;84.40
6654;DHT22;3363;50.942;7.034;2023-01-15T10:00:39;7.50;84.50
6654;DHT22;3363;50.942;7.034;2023-01-15T10:03:06;7.60;82.30
6654;DHT22;3363;50.942;7.034;2023-01-15T10:05:42;7.70;80.60
6654;DHT22;3363;50.942;7.034;2023-01-15T10:08:10;7.70;79.60
6654;DHT22;3363;50.942;7.034;2023-01-15T10:10:39;7.70;78.10
6654;DHT22;3363;50.942;7.034;2023-01-15T10:13:09;7.70;78.10
6654;DHT22;3363;50.942;7.034;2023-01-15T10:15:39;7.80;78.20
6654;DHT22;3363;50.942;7.034;2023-01-15T10:18:10;8.00;76.80
6654;DHT22;3363;50.942;7.034;2023-01-15T10:20:47;8.10;75.80
6654;DHT22;3363;50.942;7.034;2023-01-15T10:23:27;8.30;75.60
6654;DHT22;3363;50.942;7.034;2023-01-15T10:25:58;8.40;73.00
6654;DHT22;3363;50.942;7.034;2023-01-15T10:28:28;8.50;73.60
6654;DHT22;3363;50.942;7.034;2023-01-15T10:30:56;8.60;72.40
6654;DHT22;3363;50.942;7.034;2023-01-15T10:33:34;8.70;71.50
6654;DHT22;3363;50.942;7.034;2023-01-15T10:36:04;8.70;70.90
6654;DHT22;3363;50.942;7.034;2023-01-15T10:38:34;8.50;64.90
6654;DHT22;3363;50.942;7.034;2023-01-15T10:41:20;8.50;68.30
6654;DHT22;3363;50.942;7.034;2023-01-15T10:43:50;8.60;64.90
6654;DHT22;3363;50.942;7.034;2023-01-15T10:46:18;8.60;65.40
6654;DHT22;3363;50.942;7.034;2023-01-15T10:48:45;8.60;65.90
6654;DHT22;3363;50.942;7.034;2023-01-15T10:51:16;8.70;63.60
6654;DHT22;3363;50.942;7.034;2023-01-15T10:53:44;8.60;63.40
6654;DHT22;3363;50.942;7.034;2023-01-15T10:56:14;8.50;61.30
6654;DHT22;3363;50.942;7.034;2023-01-15T10:58:44;8.60;62.60
6654;DHT22;3363;50.942;7.034;2023-01-15T11:01:14;8.50;62.50
6654;DHT22;3363;50.942;7.034;2023-01-15T11:03:43;8.50;63.40
6654;DHT22;3363;50.942;7.034;2023-01-15T11:06:12;8.60;63.30
6654;DHT22;3363;50.942;7.034;2023-01-15T11:08:43;8.60;63.10
6654;DHT22;3363;50.942;7.034;2023-01-15T11:11:18;8.60;61.60
6654;DHT22;3363;50.942;7.034;2023-01-15T11:13:52;8.50;62.60
6654;DHT22;3363;50.942;7.034;2023-01-15T11:16:37;8.40;61.80
6654;DHT22;3363;50.942;7.034;2023-01-15T11:19:24;8.50;62.20
6654;DHT22;3363;50.942;7.034;2023-01-15T11:22:11;8.40;60.70
6654;DHT22;3363;50.942;7.034;2023-01-15T11:24:45;8.30;61.90
6654;DHT22;3363;50.942;7.034;2023-01-15T11:27:14;8.30;62.30
6654;DHT22;3363;50.942;7.034;2023-01-15T11:29:42;8.30;62.40
6654;DHT22;3363;50.942;7.034;2023-01-15T11:32:16;8.30;60.50
6654;DHT22;3363;50.942;7.034;2023-01-15T11:34:51;8.30;60.60
6654;DHT22;3363;50.942;7.034;2023-01-15T11:37:17;8.30;61.80
6654;DHT22;3363;50.942;7.034;2023-01-15T11:39:51;8.30;61.20
6654;DHT22;3363;50.942;7.034;2023-01-15T11:42:18;8.20;60.90
6654;DHT22;3363;50.942;7.034;2023-01-15T11:45:10;8.20;61.30
6654;DHT22;3363;50.942;7.034;2023-01-15T11:47:54;8.20;60.60
6654;DHT22;3363;50.942;7.034;2023-01-15T11:50:39;8.20;61.40
6654;DHT22;3363;50.942;7.034;2023-01-15T11:53:14;8.20;60.50
6654;DHT22;3363;50.942;7.034;2023-01-15T11:55:50;8.20;60.70
6654;DHT22;3363;50.942;7.034;2023-01-15T11:58:17;8.20;61.00
6654;DHT22;3363;50.942;7.034;2023-01-15T12:00:44;8.20;61.20
6654;DHT22;3363;50.942;7.034;2023-01-15T12:03:16;8.20;61.00
6654;DHT22;3363;50.942;7.034;2023-01-15T12:05:45;8.10;61.20
6654;DHT22;3363;50.942;7.034;2023-01-15T12:08:13;8.10;60.40
6654;DHT22;3363;50.942;7.034;2023-01-15T12:10:44;8.10;61.00
6654;DHT22;3363;50.942;7.034;2023-01-15T12:13:38;8.10;61.20
6654;DHT22;3363;50.942;7.034;2023-01-15T12:16:09;8.00;60.90
6654;DHT22;3363;50.942;7.034;2023-01-15T12:18:51;8.00;62.10
6654;DHT22;3363;50.942;7.034;2023-01-15T12:24:06;8.00;60.90
6654;DHT22;3363;50.942;7.034;2023-01-15T12:26:37;8.00;60.60
6654;DHT22;3363;50.942;7.034;2023-01-15T12:29:08;8.00;60.30
6654;DHT22;3363;50.942;7.034;2023-01-15T12:31:37;8.00;61.00
6654;DHT22;3363;50.942;7.034;2023-01-15T12:34:07;8.10;60.00
6654;DHT22;3363;50.942;7.034;2023-01-15T12:36:40;8.10;61.40
6654;DHT22;3363;50.942;7.034;2023-01-15T12:39:12;8.00;60.20
6654;DHT22;3363;50.942;7.034;2023-01-15T12:41:40;8.10;60.10
6654;DHT22;3363;50.942;7.034;2023-01-15T12:44:29;8.10;60.20
6654;DHT22;3363;50.942;7.034;2023-01-15T12:47:15;8.10;60.40
6654;DHT22;3363;50.942;7.034;2023-01-15T12:49:45;8.10;60.90
6654;DHT22;3363;50.942;7.034;2023-01-15T12:52:15;8.10;61.00
6654;DHT22;3363;50.942;7.034;2023-01-15T12:54:47;8.10;60.70
6654;DHT22;3363;50.942;7.034;2023-01-15T12:57:17;8.10;59.80
6654;DHT22;3363;50.942;7.034;2023-01-15T12:59:47;8.10;60.00
6654;DHT22;3363;50.942;7.034;2023-01-15T13:02:17;8.10;60.60
6654;DHT22;3363;50.942;7.034;2023-01-15T13:04:46;8.20;60.60
6654;DHT22;3363;50.942;7.034;2023-01-15T13:07:17;8.10;60.20
6654;DHT22;3363;50.942;7.034;2023-01-15T13:09:46;8.10;60.10
6654;DHT22;3363;50.942;7.034;2023-01-15T13:12:14;8.20;60.10
6654;DHT22;3363;50.942;7.034;2023-01-15T13:14:41;8.20;59.00
6654;DHT22;3363;50.942;7.034;2023-01-15T13:17:12;8.20;59.40
6654;DHT22;3363;50.942;7.034;2023-01-15T13:19:44;8.20;58.60
6654;DHT22;3363;50.942;7.034;2023-01-15T13:22:14;8.20;59.10
6654;DHT22;3363;50.942;7.034;2023-01-15T13:27:33;8.10;60.10
6654;DHT22;3363;50.942;7.034;2023-01-15T13:30:19;8.10;59.70
6654;DHT22;3363;50.942;7.034;2023-01-15T13:32:48;8.20;60.00
6654;DHT22;3363;50.942;7.034;2023-01-15T13:35:20;8.20;59.20
6654;DHT22;3363;50.942;7.034;2023-01-15T13:37:50;8.20;59.40
6654;DHT22;3363;50.942;7.034;2023-01-15T13:40:21;8.20;58.50
6654;DHT22;3363;50.942;7.034;2023-01-15T13:42:48;8.20;58.30
6654;DHT22;3363;50.942;7.034;2023-01-15T13:45:22;8.20;59.40
6654;DHT22;3363;50.942;7.034;2023-01-15T13:47:54;8.20;59.30
6654;DHT22;3363;50.942;7.034;2023-01-15T13:50:26;8.20;59.70
6654;DHT22;3363;50.942;7.034;2023-01-15T13:52:58;8.30;59.00
6654;DHT22;3363;50.942;7.034;2023-01-15T13:55:28;8.30;59.20
6654;DHT22;3363;50.942;7.034;2023-01-15T13:57:55;8.30;58.00
6654;DHT22;3363;50.942;7.034;2023-01-15T14:00:26;8.30;57.90
6654;DHT22;3363;50.942;7.034;2023-01-15T14:02:56;8.40;57.50
6654;DHT22;3363;50.942;7.034;2023-01-15T14:05:25;8.30;57.80
6654;DHT22;3363;50.942;7.034;2023-01-15T14:07:52;8.30;58.30
6654;DHT22;3363;50.942;7.034;2023-01-15T14:10:23;8.30;57.70
6654;DHT22;3363;50.942;7.034;2023-01-15T14:12:54;8.20;57.60
6654;DHT22;3363;50.942;7.034;2023-01-15T14:15:26;8.20;57.10
6654;DHT22;3363;50.942;7.034;2023-01-15T14:18:01;8.20;57.60
6654;DHT22;3363;50.942;7.034;2023-01-15T14:20:35;8.20;57.60
6654;DHT22;3363;50.942;7.034;2023-01-15T14:23:07;8.20;57.60
6654;DHT22;3363;50.942;7.034;2023-01-15T14:28:25;8.20;58.50
6654;DHT22;3363;50.942;7.034;2023-01-15T14:31:05;8.20;58.50
6654;DHT22;3363;50.942;7.034;2023-01-15T14:33:37;8.10;57.50
6654;DHT22;3363;50.942;7.034;2023-01-15T14:36:09;8.10;58.70
6654;DHT22;3363;50.942;7.034;2023-01-15T14:38:44;8.10;58.20
6654;DHT22;3363;50.942;7.034;2023-01-15T14:41:11;8.10;57.50
6654;DHT22;3363;50.942;7.034;2023-01-15T14:43:38;8.10;57.10
6654;DHT22;3363;50.942;7.034;2023-01-15T14:46:11;8.10;57.20
6654;DHT22;3363;50.942;7.034;2023-01-15T14:48:39;8.10;57.20
6654;DHT22;3363;50.942;7.034;2023-01-15T14:51:07;8.10;57.00
6654;DHT22;3363;50.942;7.034;2023-01-15T14:53:36;8.10;57.50
6654;DHT22;3363;50.942;7.034;2023-01-15T14:56:06;8.10;58.10
6654;DHT22;3363;50.942;7.034;2023-01-15T14:58:38;8.10;57.50
6654;DHT22;3363;50.942;7.034;2023-01-15T15:01:16;8.10;57.90
6654;DHT22;3363;50.942;7.034;2023-01-15T15:03:47;8.00;58.10
6654;DHT22;3363;50.942;7.034;2023-01-15T15:06:15;8.00;57.40
6654;DHT22;3363;50.942;7.034;2023-01-15T15:08:42;8.00;57.40
6654;DHT22;3363;50.942;7.034;2023-01-15T15:11:13;8.00;58.30
6654;DHT22;3363;50.942;7.034;2023-01-15T15:14:02;8.10;57.90
6654;DHT22;3363;50.942;7.034;2023-01-15T15:16:30;8.10;58.80
6654;DHT22;3363;50.942;7.034;2023-01-15T15:18:59;8.10;58.10
6654;DHT22;3363;50.942;7.034;2023-01-15T15:21:28;8.10;57.50
6654;DHT22;3363;50.942;7.034;2023-01-15T15:23:57;8.00;57.40
6654;DHT22;3363;50.942;7.034;2023-01-15T15:26:25;8.10;58.00
6654;DHT22;3363;50.942;7.034;2023-01-15T15:28:55;8.00;58.80
6654;DHT22;3363;50.942;7.034;2023-01-15T15:31:22;8.00;58.50
6654;DHT22;3363;50.942;7.034;2023-01-15T15:33:50;8.00;58.50
6654;DHT22;3363;50.942;7.034;2023-01-15T15:36:19;8.00;58.60
6654;DHT22;3363;50.942;7.034;2023-01-15T15:38:52;8.00;58.40
6654;DHT22;3363;50.942;7.034;2023-01-15T15:41:19;8.00;58.80
6654;DHT22;3363;50.942;7.034;2023-01-15T15:44:10;8.00;58.20
6654;DHT22;3363;50.942;7.034;2023-01-15T15:46:56;8.00;58.30
6654;DHT22;3363;50.942;7.034;2023-01-15T15:49:40;8.00;58.90
6654;DHT22;3363;50.942;7.034;2023-01-15T15:52:13;7.90;59.00
6654;DHT22;3363;50.942;7.034;2023-01-15T15:54:40;7.90;59.30
6654;DHT22;3363;50.942;7.034;2023-01-15T15:57:10;7.90;59.50
6654;DHT22;3363;50.942;7.034;2023-01-15T15:59:41;7.90;59.10
6654;DHT22;3363;50.942;7.034;2023-01-15T16:02:13;7.90;59.50
6654;DHT22;3363;50.942;7.034;2023-01-15T16:04:45;7.90;59.70
6654;DHT22;3363;50.942;7.034;2023-01-15T16:07:12;7.90;59.40
6654;DHT22;3363;50.942;7.034;2023-01-15T16:09:40;7.90;59.40
6654;DHT22;3363;50.942;7.034;2023-01-15T16:12:09;7.90;59.20
6654;DHT22;3363;50.942;7.034;2023-01-15T16:14:38;7.90;59.60
6654;DHT22;3363;50.942;7.034;2023-01-15T16:17:07;7.90;59.40
6654;DHT22;3363;50.942;7.034;2023-01-15T16:19:34;7.90;59.50
6654;DHT22;3363;50.942;7.034;2023-01-15T16:22:01;7.90;60.00
6654;DHT22;3363;50.942;7.034;2023-01-15T16:24:30;7.90;58.60
6654;DHT22;3363;50.942;7.034;2023-01-15T16:26:59;7.90;59.40
6654;DHT22;3363;50.942;7.034;2023-01-15T16:29:27;7.90;58.30
6654;DHT22;3363;50.942;7.034;2023-01-15T16:31:54;7.90;60.30
6654;DHT22;3363;50.942;7.034;2023-01-15T16:34:25;7.80;60.00
6654;DHT22;3363;50.942;7.034;2023-01-15T16:36:53;7.80;60.30
6654;DHT22;3363;50.942;7.034;2023-01-15T16:39:20;7.90;60.20
6654;DHT22;3363;50.942;7.034;2023-01-15T16:41:48;7.80;60.00
6654;DHT22;3363;50.942;7.034;2023-01-15T16:44:23;7.80;60.30